15:43
Airports
History
Links
Donate
Help keep this website running!
PayPal
Bitcoin
This page is community maintained. The information is intended for PC simulator navigation or reference.
Always use approved charts for navigation.
0D9
Air Park North
Air Park North (0D9)
Elmira, Michigan, United States (49730)
4
Lat/Lng:44° 57' 30.03" N / 84° 57' 30.17" W
44.958341 / -84.95838
Elevation:1173'ft / 358mMSL
ID / ICAO:0D9
Runways:1
Longest:09-27
Grass 869m / 2,851ft
Nearby Weather14:53 GMT 2018-01-18
Nearby weather at KGLR, Gaylord Rgnl located 13.0 nautical miles from 0D9
Altimeter: 29.84
Visibility: 8.0 statute miles
Wind: 11 knots (from 250°)
Temp: -6°c / 21°f
Humidity: 100.0%

METAR: KGLR 181453Z AUTO 25011G18KT 8SM OVC010 M06/M06 A2984 RMK AO2 SLP127 T10561061

(Powered by phpweather)
Nearby VORs <50NM
Nearby NDBs
Runway 09 / 27
Dimensions:869 x 30.5m 2851' x 100'ft
Surface:Grass
Runway 09 [A]Runway 27 [B]
Heading:084°TH 264°TH
Lat:
Lng:
44° 57' 28.79"N
84° 57' 50.14"W
44° 57' 31.27"N
84° 57' 10.19"W
User Notes and Comments
44° 57' 30.03" N / 84° 57' 30.17" W
Distance To
Airport ID:
Nearby Airports
(U) Lakes Of The North 5.2 NM
4Y4 SE 128°
4 Mancelona Muni 5.8 NM
D90 WSW 246°
(U) Antrim County 11.9 NM
KACB W 280°
4 Wilson Township 12.9 NM
Y97 N 349°
(U) Gaylord Rgnl 13.0 NM
KGLR ( WX ) ENE 73°
(U) East Jordan City 13.9 NM
Y94 NNW 328°
(U) Boyne Mountain 14.4 NM
KBFA N
VFR Chart
Flight Planning at SkyVector.com